Time;durP1;ratioP1;P1;durP2;ratioP2;P2;SDS_P1;SDS_P2;PMS_P1;PMS_P2;Temp;Humidity;BMP_temperature;BMP_pressure;BME280_temperature;BME280_humidity;BME280_pressure;Samples;Min_cycle;Max_cycle;Signal;HPM_P1;HPM_P2
2021/05/03 00:02:24;;;;;;;4.13;2.80;;;;;;;5.92;83.80;99450.41;1671220;85;26499;-89
2021/05/03 00:04:51;;;;;;;3.40;2.70;;;;;;;6.06;83.30;99413.26;1666014;84;20984;-88
2021/05/03 00:07:16;;;;;;;4.15;2.65;;;;;;;6.01;82.75;99435.16;1664338;84;21665;-88
2021/05/03 00:09:42;;;;;;;3.27;2.22;;;;;;;6.07;82.65;99428.00;1657419;85;25733;-89
2021/05/03 00:12:08;;;;;;;3.47;2.13;;;;;;;5.87;82.20;99427.71;1657614;84;22421;-87
2021/05/03 00:14:34;;;;;;;2.83;2.08;;;;;;;6.06;81.58;99474.86;1662988;85;21213;-88
2021/05/03 00:17:00;;;;;;;3.07;1.83;;;;;;;5.74;82.12;99470.77;1657735;85;21111;-89
2021/05/03 00:19:25;;;;;;;2.70;2.00;;;;;;;5.88;81.62;99452.95;1660887;84;28273;-88
2021/05/03 00:21:51;;;;;;;4.37;1.80;;;;;;;6.11;80.79;99442.47;1657941;84;27616;-87
2021/05/03 00:24:17;;;;;;;3.63;2.00;;;;;;;6.10;80.62;99436.87;1656095;85;22203;-87
2021/05/03 00:26:43;;;;;;;2.53;2.20;;;;;;;6.03;80.87;99430.59;1654640;85;21659;-87
2021/05/03 00:29:08;;;;;;;3.10;2.23;;;;;;;5.88;81.59;99438.55;1653889;84;21827;-87
2021/05/03 00:31:35;;;;;;;5.10;2.65;;;;;;;5.78;81.41;99445.59;1661032;84;27458;-86
2021/05/03 00:34:03;;;;;;;3.72;2.60;;;;;;;6.01;81.20;99436.47;1665754;84;21230;-87
2021/05/03 00:36:29;;;;;;;4.83;3.15;;;;;;;5.91;81.14;99443.50;1653586;85;21214;-86
2021/05/03 00:38:54;;;;;;;5.23;3.30;;;;;;;5.92;81.39;99436.80;1668279;84;23584;-87
2021/05/03 00:41:20;;;;;;;4.40;3.50;;;;;;;5.88;82.14;99460.81;1666761;84;20999;-86
2021/05/03 00:43:46;;;;;;;4.80;3.10;;;;;;;6.05;81.85;99449.60;1660609;84;28455;-87
2021/05/03 00:46:17;;;;;;;3.75;3.20;;;;;;;6.14;81.67;99471.52;1664068;85;26452;-87
2021/05/03 00:48:39;;;;;;;5.60;3.67;;;;;;;5.93;82.62;99456.81;1664565;85;21834;-86
2021/05/03 00:51:05;;;;;;;5.77;3.57;;;;;;;5.99;81.98;99465.91;1660484;85;21680;-87
2021/05/03 00:53:31;;;;;;;5.57;4.00;;;;;;;5.90;82.32;99451.85;1657528;84;20981;-87
2021/05/03 00:55:57;;;;;;;5.53;3.77;;;;;;;5.98;82.16;99510.60;1667777;84;29465;-89
2021/05/03 00:58:23;;;;;;;5.03;3.83;;;;;;;5.95;81.99;99456.66;1659461;85;26797;-88
2021/05/03 01:00:49;;;;;;;5.87;3.37;;;;;;;6.14;81.40;99460.18;1661700;84;21469;-87
2021/05/03 01:03:14;;;;;;;5.03;4.10;;;;;;;6.15;81.36;99464.47;1658757;85;24576;-87
2021/05/03 01:05:40;;;;;;;5.47;3.90;;;;;;;6.17;81.16;99471.69;1663033;85;22825;-89
2021/05/03 01:08:06;;;;;;;5.08;3.47;;;;;;;6.24;81.09;99463.60;1662579;85;27927;-87
2021/05/03 01:10:31;;;;;;;7.10;3.52;;;;;;;6.03;81.13;99477.77;1659933;85;25241;-87
2021/05/03 01:12:58;;;;;;;4.57;3.57;;;;;;;6.07;80.95;99492.21;1660811;84;21204;-86
2021/05/03 01:15:24;;;;;;;4.58;3.37;;;;;;;6.06;81.02;99466.99;1655862;84;21238;-87
2021/05/03 01:17:59;;;;;;;4.60;3.20;;;;;;;6.12;81.12;99486.54;1657794;85;21201;-88
2021/05/03 01:20:27;;;;;;;4.25;3.40;;;;;;;6.02;81.02;99485.27;1663187;85;21273;-88
2021/05/03 01:22:58;;;;;;;4.65;3.05;;;;;;;6.22;80.33;99507.50;1655076;84;21251;-90
2021/05/03 01:25:32;;;;;;;4.83;3.25;;;;;;;6.21;80.35;99495.34;1642515;84;21458;-87
2021/05/03 01:28:00;;;;;;;5.12;3.17;;;;;;;6.21;80.44;99509.77;1644745;85;21170;-86
2021/05/03 01:30:42;;;;;;;4.80;3.02;;;;;;;6.23;80.23;99545.84;1658720;84;21237;-87
2021/05/03 01:33:09;;;;;;;4.28;2.98;;;;;;;6.06;80.32;99507.63;1655630;85;21249;-87
2021/05/03 01:35:35;;;;;;;4.47;3.00;;;;;;;6.25;79.50;99517.70;1658515;84;21635;-86
2021/05/03 01:38:03;;;;;;;4.85;2.90;;;;;;;6.30;79.61;99516.77;1661488;84;22180;-87
2021/05/03 01:40:30;;;;;;;4.10;2.90;;;;;;;6.23;79.86;99513.06;1644358;85;21189;-86
2021/05/03 01:42:56;;;;;;;4.55;3.27;;;;;;;6.11;79.95;99537.34;1665511;85;21507;-89
2021/05/03 01:45:24;;;;;;;4.22;2.90;;;;;;;6.20;79.88;99533.02;1656369;84;21202;-86
2021/05/03 01:47:50;;;;;;;4.95;3.15;;;;;;;6.09;79.85;99547.97;1653826;85;21226;-87
2021/05/03 01:50:16;;;;;;;4.62;2.95;;;;;;;6.19;79.74;99552.36;1661938;84;22167;-86
2021/05/03 01:52:42;;;;;;;3.73;2.57;;;;;;;6.18;79.92;99548.07;1652756;85;24116;-85
2021/05/03 01:55:09;;;;;;;5.27;3.50;;;;;;;6.31;79.28;99548.59;1652767;85;20956;-86
2021/05/03 01:57:35;;;;;;;4.97;3.27;;;;;;;6.28;79.56;99543.63;1656867;85;21668;-87
2021/05/03 02:00:01;;;;;;;4.62;3.12;;;;;;;6.32;79.25;99556.78;1667801;84;21252;-86
2021/05/03 02:02:27;;;;;;;5.03;3.20;;;;;;;6.30;79.27;99554.80;1659753;84;21275;-86
2021/05/03 02:04:53;;;;;;;4.23;3.30;;;;;;;6.42;78.98;99558.08;1659035;85;25502;-87
2021/05/03 02:07:18;;;;;;;6.47;3.60;;;;;;;6.14;79.92;99555.41;1658906;85;21031;-86
2021/05/03 02:09:45;;;;;;;5.95;3.58;;;;;;;6.34;79.20;99550.92;1668546;84;28443;-86
2021/05/03 02:12:11;;;;;;;6.60;4.28;;;;;;;6.18;79.89;99565.11;1665534;84;21237;-87
2021/05/03 02:14:44;;;;;;;6.60;3.90;;;;;;;6.29;79.72;99575.42;1639930;85;21018;-87
2021/05/03 02:17:10;;;;;;;6.60;3.90;;;;;;;6.35;79.53;99569.60;1670874;85;21099;-87
2021/05/03 02:19:36;;;;;;;4.87;3.52;;;;;;;6.05;80.48;99558.87;1671133;84;21253;-87
2021/05/03 02:22:03;;;;;;;5.50;3.83;;;;;;;6.22;80.00;99594.84;1669014;84;28338;-87
2021/05/03 02:24:29;;;;;;;5.97;4.27;;;;;;;6.17;80.13;99570.84;1667062;84;21203;-87
2021/05/03 02:26:55;;;;;;;6.20;3.92;;;;;;;6.17;80.13;99570.84;1651784;85;21455;-86
2021/05/03 02:29:21;;;;;;;5.42;3.83;;;;;;;6.23;80.18;99583.85;1666886;85;21234;-86
2021/05/03 02:31:49;;;;;;;5.73;4.03;;;;;;;6.12;80.71;99603.19;1690291;84;21161;-86
2021/05/03 02:34:17;;;;;;;6.30;4.00;;;;;;;6.25;80.23;99598.98;1667242;85;21228;-86
2021/05/03 02:36:45;;;;;;;5.50;3.80;;;;;;;6.38;80.24;99581.61;1670723;84;21216;-87
2021/05/03 02:39:11;;;;;;;6.72;4.37;;;;;;;6.29;80.35;99581.97;1667969;84;21172;-87
2021/05/03 02:41:36;;;;;;;5.90;3.73;;;;;;;6.25;80.62;99608.16;1661843;84;25532;-87
2021/05/03 02:44:05;;;;;;;7.10;3.97;;;;;;;6.31;80.69;99587.08;1673382;84;21805;-86
2021/05/03 02:46:31;;;;;;;6.00;4.15;;;;;;;6.21;80.53;99617.26;1681615;84;21645;-88
2021/05/03 02:48:57;;;;;;;6.15;4.10;;;;;;;6.39;80.13;99601.14;1646732;84;25897;-86
2021/05/03 02:51:23;;;;;;;6.37;4.10;;;;;;;6.29;80.22;99593.77;1670731;84;21943;-87
2021/05/03 02:53:48;;;;;;;6.50;3.97;;;;;;;6.30;80.08;99630.84;1662677;85;25521;-87
2021/05/03 02:56:14;;;;;;;6.07;4.00;;;;;;;6.17;80.26;99636.39;1680857;84;21050;-87
2021/05/03 02:58:40;;;;;;;9.05;4.53;;;;;;;6.14;80.16;99624.88;1668292;84;28341;-87
2021/05/03 03:01:06;;;;;;;4.95;3.60;;;;;;;6.29;80.25;99626.55;1667144;84;26753;-87
2021/05/03 03:03:31;;;;;;;6.25;3.80;;;;;;;6.32;79.99;99626.27;1668887;85;21986;-87
2021/05/03 03:05:57;;;;;;;6.47;3.83;;;;;;;6.27;79.60;99654.22;1669659;84;27507;-87
2021/05/03 03:08:23;;;;;;;7.90;4.33;;;;;;;6.31;79.89;99631.19;1669901;84;21285;-88
2021/05/03 03:10:49;;;;;;;6.05;3.58;;;;;;;6.31;79.69;99635.13;1658597;85;28465;-88
2021/05/03 03:13:14;;;;;;;7.42;4.15;;;;;;;6.42;79.21;99638.88;1666740;85;26817;-88
2021/05/03 03:15:40;;;;;;;5.57;3.93;;;;;;;6.24;80.01;99639.27;1672162;85;21437;-88
2021/05/03 03:18:07;;;;;;;6.53;3.83;;;;;;;6.46;79.18;99645.51;1661651;85;23904;-87
2021/05/03 03:20:33;;;;;;;5.85;3.62;;;;;;;6.24;79.75;99652.38;1674378;84;21220;-87
2021/05/03 03:22:59;;;;;;;7.15;3.95;;;;;;;6.29;79.80;99655.39;1665797;85;21268;-88
2021/05/03 03:25:26;;;;;;;4.42;3.55;;;;;;;6.20;79.76;99664.09;1662601;84;25951;-88
2021/05/03 03:27:55;;;;;;;6.92;3.50;;;;;;;6.39;79.12;99668.02;1659708;84;22137;-89
2021/05/03 03:30:21;;;;;;;5.65;3.58;;;;;;;6.35;79.33;99664.50;1660079;85;21197;-89
2021/05/03 03:32:47;;;;;;;6.42;3.77;;;;;;;6.42;79.14;99669.05;1664510;84;21588;-90
2021/05/03 03:35:17;;;;;;;7.17;3.97;;;;;;;6.30;79.46;99672.79;1666570;84;26816;-89
2021/05/03 03:37:43;;;;;;;5.45;3.70;;;;;;;6.41;78.98;99664.76;1658718;85;21321;-90
2021/05/03 03:40:10;;;;;;;7.17;3.75;;;;;;;6.50;78.79;99671.45;1662109;84;22745;-89
2021/05/03 03:42:36;;;;;;;7.40;3.80;;;;;;;6.39;79.28;99685.06;1665643;84;21655;-89
2021/05/03 03:45:06;;;;;;;7.00;3.37;;;;;;;6.31;79.06;99684.95;1664860;84;21224;-89
2021/05/03 03:47:34;;;;;;;5.65;3.77;;;;;;;6.40;78.85;99686.73;1645430;84;21217;-89
2021/05/03 03:49:59;;;;;;;7.30;3.50;;;;;;;6.49;78.80;99705.20;1665545;84;21232;-89
2021/05/03 03:52:25;;;;;;;5.60;3.40;;;;;;;6.53;78.57;99671.99;1671577;84;22102;-89
2021/05/03 03:54:53;;;;;;;7.63;3.80;;;;;;;6.36;78.87;99706.32;1662718;85;24783;-89
2021/05/03 03:57:19;;;;;;;4.53;3.12;;;;;;;6.49;78.66;99684.22;1659043;84;21225;-89
2021/05/03 03:59:48;;;;;;;6.20;3.42;;;;;;;6.41;78.78;99692.79;1662401;85;21165;-88
2021/05/03 04:02:12;;;;;;;;;;;;;;;6.34;79.11;99698.24;1671709;84;21245;-89
2021/05/03 04:04:42;;;;;;;6.12;3.40;;;;;;;6.38;78.73;99703.56;1672687;84;21286;-89
2021/05/03 04:07:27;;;;;;;7.87;3.45;;;;;;;6.32;78.73;99727.22;1667386;84;21730;-89
2021/05/03 04:26:06;;;;;;;5.40;3.58;;;;;;;6.70;75.97;99718.16;1662107;85;21241;-89
2021/05/03 04:28:32;;;;;;;6.15;3.30;;;;;;;6.58;76.35;99713.05;1668169;85;21748;-89
2021/05/03 04:30:58;;;;;;;6.57;3.37;;;;;;;6.63;75.86;99736.23;1664632;85;21943;-89
2021/05/03 04:33:24;;;;;;;6.17;3.27;;;;;;;6.42;76.24;99739.04;1668420;85;25579;-89
2021/05/03 04:35:49;;;;;;;4.97;3.30;;;;;;;6.62;75.57;99739.84;1662322;85;22840;-89
2021/05/03 04:38:15;;;;;;;5.37;3.20;;;;;;;6.68;75.46;99735.81;1670998;85;28833;-89
2021/05/03 04:40:46;;;;;;;4.75;3.05;;;;;;;6.76;75.35;99747.27;1663184;85;25096;-89
2021/05/03 04:43:11;;;;;;;5.72;3.02;;;;;;;6.85;75.15;99746.06;1663613;85;21142;-89
2021/05/03 04:45:36;;;;;;;6.77;3.23;;;;;;;6.70;75.29;99739.96;1666739;84;26549;-88
2021/05/03 04:48:03;;;;;;;4.80;3.17;;;;;;;6.96;75.04;99740.64;1663620;85;24841;-88
2021/05/03 04:50:29;;;;;;;5.78;3.20;;;;;;;6.88;74.88;99744.47;1670471;84;21468;-88
2021/05/03 04:52:54;;;;;;;4.60;3.08;;;;;;;6.93;74.57;99747.48;1669450;84;21181;-88
2021/05/03 04:55:20;;;;;;;6.33;3.33;;;;;;;7.00;74.28;99756.45;1669722;85;22712;-89
2021/05/03 04:57:46;;;;;;;9.57;3.30;;;;;;;6.91;74.87;99754.69;1661177;84;27910;-88
2021/05/03 05:00:13;;;;;;;4.00;3.00;;;;;;;7.10;74.33;99762.98;1671159;84;24723;-88
2021/05/03 05:02:38;;;;;;;6.03;3.20;;;;;;;6.81;74.85;99784.41;1666831;84;21178;-88
2021/05/03 05:05:10;;;;;;;7.12;3.40;;;;;;;6.93;74.55;99771.11;1672120;84;21237;-88
2021/05/03 05:07:37;;;;;;;6.67;3.12;;;;;;;6.80;74.89;99769.62;1664232;85;21088;-87
2021/05/03 05:10:05;;;;;;;9.33;3.50;;;;;;;6.90;74.92;99768.77;1669307;85;21177;-87
2021/05/03 05:12:32;;;;;;;5.90;3.25;;;;;;;6.94;74.87;99772.28;1652394;86;21677;-88
2021/05/03 05:14:57;;;;;;;4.50;3.10;;;;;;;7.16;74.17;99779.02;1654602;85;21226;-88
2021/05/03 05:17:23;;;;;;;5.80;3.50;;;;;;;7.07;74.10;99781.19;1652418;84;26856;-88
2021/05/03 05:19:49;;;;;;;5.45;3.40;;;;;;;6.96;74.20;99765.58;1661460;84;21957;-88
2021/05/03 05:22:15;;;;;;;9.13;4.20;;;;;;;6.94;74.42;99780.65;1656484;85;25917;-88
2021/05/03 05:24:40;;;;;;;8.20;4.17;;;;;;;7.08;74.15;99792.01;1657632;84;21270;-88
2021/05/03 05:27:07;;;;;;;7.72;4.20;;;;;;;6.97;74.65;99789.55;1661913;84;28336;-88
2021/05/03 05:29:32;;;;;;;8.38;4.10;;;;;;;7.19;74.59;99778.73;1638513;86;21592;-88
2021/05/03 05:31:58;;;;;;;8.50;4.10;;;;;;;7.27;74.16;99793.77;1655529;84;21242;-90
2021/05/03 05:34:24;;;;;;;9.60;4.83;;;;;;;7.15;74.62;99778.66;1658753;86;27474;-90
2021/05/03 05:36:49;;;;;;;8.87;4.53;;;;;;;6.97;75.24;99782.99;1662831;85;25692;-90
2021/05/03 05:39:15;;;;;;;7.75;4.70;;;;;;;7.40;74.68;99792.12;1656495;86;28445;-90
2021/05/03 05:41:41;;;;;;;6.83;4.83;;;;;;;7.28;74.35;99802.47;1664386;85;26696;-90
2021/05/03 05:44:07;;;;;;;7.42;4.40;;;;;;;7.39;74.29;99800.97;1661810;86;21344;-90
2021/05/03 05:46:36;;;;;;;6.73;4.40;;;;;;;7.38;73.89;99803.27;1656571;84;27709;-90
2021/05/03 05:49:03;;;;;;;10.08;4.42;;;;;;;7.22;73.21;99818.30;1661914;85;21174;-90
2021/05/03 05:51:29;;;;;;;8.98;4.15;;;;;;;7.39;72.95;99825.92;1660522;86;21197;-89
2021/05/03 05:53:54;;;;;;;7.00;3.67;;;;;;;7.54;71.84;99815.28;1655132;86;27045;-90
2021/05/03 05:56:20;;;;;;;6.90;3.77;;;;;;;7.60;71.46;99815.67;1657478;85;21854;-89
2021/05/03 05:58:46;;;;;;;7.00;3.97;;;;;;;7.86;70.90;99819.77;1656484;84;27504;-89
2021/05/03 06:01:12;;;;;;;7.85;4.03;;;;;;;7.62;71.18;99809.30;1662793;84;24278;-89
2021/05/03 06:03:38;;;;;;;7.55;3.83;;;;;;;7.51;71.47;99823.45;1660018;84;28332;-88
2021/05/03 06:06:05;;;;;;;8.60;3.77;;;;;;;7.83;70.99;99822.69;1664306;84;21243;-88
2021/05/03 06:08:31;;;;;;;7.10;3.85;;;;;;;7.79;70.47;99833.98;1661329;84;21267;-88
2021/05/03 06:10:57;;;;;;;7.58;4.08;;;;;;;8.02;70.53;99824.41;1653908;84;21248;-88
2021/05/03 06:13:22;;;;;;;6.07;3.73;;;;;;;7.93;70.57;99837.94;1685817;84;21848;-88
2021/05/03 06:15:48;;;;;;;6.50;3.60;;;;;;;7.86;70.52;99833.76;1683975;84;28489;-89
2021/05/03 06:18:14;;;;;;;6.30;3.70;;;;;;;7.89;70.17;99830.84;1683759;84;26796;-88
2021/05/03 06:20:43;;;;;;;8.95;3.50;;;;;;;8.05;70.15;99832.81;1683998;84;21965;-91
2021/05/03 06:23:13;;;;;;;7.08;3.37;;;;;;;7.98;69.44;99839.63;1680992;84;21213;-88
2021/05/03 06:25:43;;;;;;;4.78;2.77;;;;;;;8.09;69.02;99839.91;1680882;82;21560;-89
2021/05/03 06:28:08;;;;;;;7.03;3.67;;;;;;;7.75;67.43;99851.02;1678238;84;21204;-86
2021/05/03 06:30:36;;;;;;;6.60;3.52;;;;;;;8.01;67.84;99852.98;1680841;84;27361;-87
2021/05/03 06:33:02;;;;;;;7.87;3.80;;;;;;;7.91;68.62;99850.41;1631023;87;21205;-88
2021/05/03 06:35:28;;;;;;;5.62;3.45;;;;;;;7.88;69.17;99866.47;1655941;85;21248;-89
2021/05/03 06:37:54;;;;;;;7.47;3.80;;;;;;;8.34;68.02;99837.54;1680712;84;25319;-88
2021/05/03 06:40:20;;;;;;;8.13;3.72;;;;;;;8.38;68.41;99842.35;1684586;84;28608;-87
2021/05/03 06:42:49;;;;;;;7.28;3.75;;;;;;;8.39;68.91;99845.80;1688118;82;26807;-89
2021/05/03 06:45:20;;;;;;;5.75;3.58;;;;;;;8.25;68.59;99874.30;1686521;84;21201;-87
2021/05/03 06:47:49;;;;;;;6.08;3.45;;;;;;;8.31;68.28;99857.56;1686172;84;21163;-87
2021/05/03 06:50:15;;;;;;;5.50;3.75;;;;;;;8.14;67.84;99853.47;1680371;84;21218;-86
2021/05/03 06:52:41;;;;;;;9.50;3.70;;;;;;;8.17;67.98;99866.33;1686884;82;28421;-84
2021/05/03 06:55:09;;;;;;;6.25;3.60;;;;;;;8.19;68.07;99861.73;1683336;84;21213;-86
2021/05/03 06:57:35;;;;;;;5.55;3.40;;;;;;;8.18;67.26;99875.03;1683922;84;21362;-86
2021/05/03 07:00:01;;;;;;;5.67;3.33;;;;;;;8.19;66.00;99873.57;1684879;84;27020;-83
2021/05/03 07:02:26;;;;;;;8.53;3.27;;;;;;;7.96;65.50;99878.89;1684462;84;25361;-87
2021/05/03 07:04:52;;;;;;;6.05;3.47;;;;;;;7.79;66.87;99865.53;1680737;84;28486;-85
2021/05/03 07:07:18;;;;;;;6.70;3.52;;;;;;;7.87;66.53;99870.88;1677668;84;26877;-85
2021/05/03 07:09:47;;;;;;;4.70;2.98;;;;;;;7.91;66.24;99891.98;1679671;84;21967;-85
2021/05/03 07:12:11;;;;;;;;;;;;;;;7.81;65.75;99891.18;1654262;85;21637;-85
2021/05/03 07:14:37;;;;;;;4.72;2.62;;;;;;;7.91;66.36;99884.09;1682338;85;20183;-83
2021/05/03 07:17:06;;;;;;;7.17;3.30;;;;;;;8.06;66.10;99890.17;1685251;84;29612;-84
2021/05/03 07:19:33;;;;;;;4.62;2.65;;;;;;;8.06;65.87;99911.20;1660749;85;21198;-84
2021/05/03 07:22:01;;;;;;;5.62;2.62;;;;;;;8.15;62.37;99917.41;1665702;85;21351;-83
2021/05/03 07:24:30;;;;;;;4.90;2.50;;;;;;;8.42;62.18;99888.45;1669681;84;21269;-85
2021/05/03 07:26:56;;;;;;;5.45;2.20;;;;;;;8.30;60.27;99896.68;1653950;85;21188;-85
2021/05/03 07:29:21;;;;;;;4.65;2.10;;;;;;;8.44;58.59;99897.05;1670004;84;29706;-85
2021/05/03 07:31:47;;;;;;;5.62;2.42;;;;;;;8.46;57.43;99902.66;1668335;84;27404;-85
2021/05/03 07:34:14;;;;;;;3.83;1.90;;;;;;;8.86;56.71;99895.64;1668527;84;21950;-86
2021/05/03 07:36:41;;;;;;;8.55;2.20;;;;;;;8.46;55.54;99933.73;1671473;84;21229;-86
2021/05/03 07:39:07;;;;;;;4.80;2.12;;;;;;;8.48;55.79;99896.75;1671898;84;21233;-86
2021/05/03 07:41:33;;;;;;;4.83;2.10;;;;;;;8.32;55.33;99915.80;1665685;84;28447;-84
2021/05/03 07:43:59;;;;;;;4.05;2.10;;;;;;;8.72;55.98;99896.17;1670567;83;21237;-88
2021/05/03 07:46:26;;;;;;;4.47;2.45;;;;;;;8.75;56.57;99914.30;1668358;84;21931;-86
2021/05/03 07:48:58;;;;;;;5.12;2.10;;;;;;;8.86;56.45;99907.98;1669676;84;21225;-86
2021/05/03 07:51:28;;;;;;;5.75;2.45;;;;;;;8.90;55.74;99928.60;1668043;84;21233;-86
2021/05/03 07:53:54;;;;;;;5.55;2.30;;;;;;;8.67;55.15;99918.16;1671833;85;21766;-84
2021/05/03 07:56:20;;;;;;;3.85;2.00;;;;;;;8.73;54.39;99910.97;1671667;84;21208;-86
2021/05/03 07:58:46;;;;;;;7.72;2.20;;;;;;;9.05;53.79;99914.39;1670857;84;21266;-86
2021/05/03 08:01:12;;;;;;;6.10;2.20;;;;;;;9.04;53.54;99924.58;1669127;84;21241;-84
2021/05/03 08:03:39;;;;;;;5.17;2.30;;;;;;;9.01;53.18;99940.72;1671026;84;25377;-87
2021/05/03 08:06:12;;;;;;;6.33;2.58;;;;;;;8.92;53.21;99946.88;1666932;84;21329;-87
2021/05/03 08:08:38;;;;;;;3.77;2.20;;;;;;;9.17;53.69;99921.58;1669267;84;21206;-85
2021/05/03 08:11:08;;;;;;;5.70;2.50;;;;;;;9.10;53.71;99925.78;1672265;84;21776;-85
2021/05/03 08:13:34;;;;;;;4.50;2.30;;;;;;;9.56;53.24;99938.83;1646506;83;21236;-85
2021/05/03 08:16:03;;;;;;;4.42;2.25;;;;;;;9.25;53.27;99961.16;1667145;84;21228;-86
2021/05/03 08:18:29;;;;;;;3.92;2.37;;;;;;;9.25;53.58;99944.02;1644878;85;21208;-86
2021/05/03 08:20:56;;;;;;;4.20;2.10;;;;;;;9.42;52.88;99941.53;1663732;84;21209;-86
2021/05/03 08:23:24;;;;;;;4.08;2.17;;;;;;;9.47;52.36;99944.52;1661234;84;21761;-89
2021/05/03 08:25:51;;;;;;;5.80;2.27;;;;;;;9.74;52.60;99926.89;1666579;84;21718;-88
2021/05/03 08:28:17;;;;;;;5.25;2.00;;;;;;;9.78;52.46;99963.84;1645996;85;21305;-86
2021/05/03 08:30:44;;;;;;;3.12;1.80;;;;;;;9.79;50.79;99947.02;1663356;85;28351;-87
2021/05/03 08:33:10;;;;;;;4.15;1.70;;;;;;;9.93;49.52;99941.18;1660527;85;22351;-88
2021/05/03 08:35:36;;;;;;;3.72;1.70;;;;;;;9.79;49.75;99968.11;1660284;84;21656;-86
2021/05/03 08:38:02;;;;;;;3.58;1.80;;;;;;;9.64;49.79;99938.36;1658276;85;27096;-87
2021/05/03 08:40:28;;;;;;;4.53;1.60;;;;;;;9.60;50.20;99983.17;1644511;85;21763;-87
2021/05/03 08:42:55;;;;;;;3.30;1.80;;;;;;;9.50;50.19;99945.53;1669349;84;21297;-85
2021/05/03 08:45:23;;;;;;;4.47;2.00;;;;;;;9.48;50.25;99963.31;1663867;84;36683;-83
2021/05/03 08:48:09;;;;;;;3.35;1.70;;;;;;;9.64;50.12;99954.19;1670324;84;21956;-86
2021/05/03 08:53:11;;;;;;;4.23;1.80;;;;;;;9.41;50.79;99967.53;1663300;84;21252;-85
2021/05/03 08:55:37;;;;;;;3.20;1.60;;;;;;;9.38;51.06;99997.65;1664555;85;21276;-81
2021/05/03 08:58:03;;;;;;;3.30;1.70;;;;;;;9.52;51.00;99966.81;1670407;84;21207;-81
2021/05/03 09:00:29;;;;;;;3.15;1.80;;;;;;;9.75;50.80;99967.60;1668718;84;21060;-83
2021/05/03 09:02:55;;;;;;;4.22;2.25;;;;;;;9.57;50.26;99963.71;1664283;85;27279;-84
2021/05/03 09:05:23;;;;;;;4.50;2.40;;;;;;;9.83;50.57;99980.02;1671135;84;25315;-82
2021/05/03 09:07:49;;;;;;;2.85;2.08;;;;;;;9.87;50.98;99977.41;1681091;84;21229;-80
2021/05/03 09:10:19;;;;;;;3.90;2.03;;;;;;;9.96;50.75;99990.98;1665660;84;21380;-86
2021/05/03 09:12:46;;;;;;;3.83;2.20;;;;;;;10.01;51.00;100024.81;1644867;85;21300;-87
2021/05/03 09:15:12;;;;;;;5.05;2.10;;;;;;;10.16;51.03;99971.80;1621075;87;21213;-83
2021/05/03 09:17:40;;;;;;;2.33;1.60;;;;;;;10.13;50.25;99993.70;1647173;85;21215;-83
2021/05/03 09:20:13;;;;;;;3.87;1.70;;;;;;;10.21;49.22;99983.20;1646399;85;21225;-84
2021/05/03 09:22:45;;;;;;;3.33;1.90;;;;;;;9.98;49.27;99975.81;1624237;86;21575;-83
2021/05/03 09:25:27;;;;;;;5.87;1.98;;;;;;;9.97;50.70;99982.06;1646233;85;21330;-81
2021/05/03 09:28:11;;;;;;;3.15;2.00;;;;;;;10.27;50.70;99964.56;1628978;87;21259;-82
2021/05/03 09:30:50;;;;;;;3.27;1.60;;;;;;;10.07;50.28;99997.80;1647129;85;21437;-81
2021/05/03 09:33:23;;;;;;;4.60;1.72;;;;;;;10.11;49.61;99990.39;1617893;87;21282;-82
2021/05/03 09:36:07;;;;;;;3.58;1.77;;;;;;;10.22;49.39;99984.83;1650488;85;21199;-81
2021/05/03 09:38:46;;;;;;;4.17;1.70;;;;;;;9.91;49.83;99997.20;1646322;86;21234;-81
2021/05/03 09:41:24;;;;;;;3.83;1.80;;;;;;;10.20;49.96;99984.17;1627971;87;21284;-91
2021/05/03 09:44:06;;;;;;;4.37;2.00;;;;;;;10.29;50.45;100003.53;1627233;87;21651;-87
2021/05/03 09:46:40;;;;;;;4.10;2.00;;;;;;;10.29;50.65;100004.34;1627079;86;21240;-82
2021/05/03 09:49:13;;;;;;;3.62;1.95;;;;;;;10.13;50.49;100017.44;1647164;85;21548;-82
2021/05/03 09:51:56;;;;;;;3.85;1.72;;;;;;;10.26;50.59;100017.85;1625511;87;21999;-82
2021/05/03 09:54:31;;;;;;;3.15;1.92;;;;;;;10.04;51.00;100023.18;1650906;85;21575;-82
2021/05/03 09:57:05;;;;;;;3.90;2.10;;;;;;;10.19;51.04;100041.88;1646734;85;21230;-83
2021/05/03 09:59:41;;;;;;;4.15;1.90;;;;;;;9.87;52.14;100003.78;1627613;87;21618;-79
2021/05/03 10:02:30;;;;;;;2.87;1.87;;;;;;;10.09;52.51;100013.48;1652051;85;21133;-81
2021/05/03 10:05:07;;;;;;;5.57;2.30;;;;;;;10.28;52.57;100025.61;1645710;85;21257;-81
2021/05/03 10:07:32;;;;;;;3.92;2.00;;;;;;;10.52;52.34;100022.30;1622820;86;21179;-83
2021/05/03 10:10:06;;;;;;;;;;;;;;;10.68;52.33;100013.10;1607045;87;21231;-82
2021/05/03 10:12:32;;;;;;;3.85;2.22;;;;;;;10.31;52.95;100027.44;1645768;85;20223;-84
2021/05/03 10:15:00;;;;;;;3.95;2.10;;;;;;;10.28;53.22;100015.88;1684131;84;21023;-79
2021/05/03 10:17:27;;;;;;;3.58;2.10;;;;;;;10.56;53.02;100015.70;1656238;85;21671;-80
2021/05/03 10:19:57;;;;;;;3.55;2.10;;;;;;;10.59;51.23;100052.34;1663279;85;21170;-80
2021/05/03 10:22:24;;;;;;;4.55;2.20;;;;;;;10.46;51.32;100036.14;1669732;84;21236;-79
2021/05/03 10:24:56;;;;;;;3.42;2.08;;;;;;;10.31;51.94;100036.67;1672123;83;21188;-81
2021/05/03 10:27:22;;;;;;;3.87;2.37;;;;;;;10.40;51.79;100014.64;1670855;84;21206;-82
2021/05/03 10:29:49;;;;;;;5.08;2.10;;;;;;;10.55;51.86;100028.55;1672870;84;21209;-81
2021/05/03 10:32:22;;;;;;;4.50;2.10;;;;;;;10.80;50.83;100018.08;1663905;85;21667;-82
2021/05/03 10:34:50;;;;;;;4.15;2.00;;;;;;;11.04;50.66;100017.33;1671824;84;21253;-81
2021/05/03 10:37:40;;;;;;;3.72;2.25;;;;;;;10.87;51.51;100020.42;1672473;84;21558;-81
2021/05/03 10:40:20;;;;;;;3.17;2.00;;;;;;;10.57;51.64;100064.89;1666863;84;21241;-82
2021/05/03 10:43:12;;;;;;;3.90;2.17;;;;;;;10.46;51.42;100035.63;1667283;85;21237;-82
2021/05/03 10:49:10;;;;;;;4.25;2.40;;;;;;;10.26;54.76;100057.44;1665907;85;21276;-82
2021/05/03 10:51:41;;;;;;;4.62;2.40;;;;;;;10.18;58.60;100052.12;1656064;84;21213;-85
2021/05/03 10:54:29;;;;;;;4.97;2.55;;;;;;;10.31;59.63;100069.67;1670759;84;21680;-81
2021/05/03 10:56:55;;;;;;;4.10;2.10;;;;;;;10.03;59.40;100057.95;1664493;84;21225;-82
2021/05/03 10:59:21;;;;;;;5.33;2.47;;;;;;;10.10;59.67;100064.77;1671592;84;28446;-82
2021/05/03 11:01:59;;;;;;;5.60;2.25;;;;;;;10.24;58.11;100052.82;1672699;83;25318;-82
2021/05/03 11:04:29;;;;;;;3.17;2.10;;;;;;;10.12;56.64;100067.26;1668146;84;21141;-83
2021/05/03 11:07:06;;;;;;;4.35;2.22;;;;;;;9.98;56.81;100052.32;1666791;84;21775;-83
2021/05/03 11:09:42;;;;;;;3.47;2.37;;;;;;;9.99;56.53;100058.41;1667412;84;21224;-82
2021/05/03 11:12:12;;;;;;;4.58;2.47;;;;;;;9.88;58.77;100068.72;1664953;84;21435;-83
2021/05/03 11:14:41;;;;;;;4.47;2.20;;;;;;;9.58;62.32;100081.84;1672365;84;21316;-81
2021/05/03 11:17:10;;;;;;;4.20;2.30;;;;;;;9.63;63.02;100094.92;1670445;85;21233;-81
2021/05/03 11:20:08;;;;;;;4.08;2.42;;;;;;;9.80;63.55;100058.13;1666305;85;21258;-87
2021/05/03 11:22:46;;;;;;;4.12;2.40;;;;;;;9.91;63.82;100071.05;1669775;84;21246;-84
2021/05/03 11:25:21;;;;;;;5.92;2.70;;;;;;;9.84;64.02;100059.48;1668257;84;21227;-83
2021/05/03 11:30:33;;;;;;;4.22;2.60;;;;;;;9.68;65.53;100079.47;1665800;84;21205;-84
2021/05/03 11:33:03;;;;;;;;;;;;;;;9.44;61.97;100085.84;1666694;84;22259;-83
2021/05/03 11:35:42;;;;;;;4.90;2.33;;;;;;;9.69;61.04;100081.60;1673605;84;20308;-83
2021/05/03 11:38:12;;;;;;;4.45;2.50;;;;;;;10.03;60.92;100064.55;1663459;84;21131;-86
2021/05/03 11:46:32;;;;;;;5.30;2.47;;;;;;;10.45;57.27;100088.59;1663248;85;21215;-87
2021/05/03 11:49:00;;;;;;;6.58;2.62;;;;;;;10.61;55.93;100092.62;1659420;84;21211;-85
2021/05/03 11:51:28;;;;;;;4.25;2.40;;;;;;;10.46;55.38;100086.30;1662623;84;21550;-87
2021/05/03 11:53:56;;;;;;;6.08;2.72;;;;;;;10.85;55.09;100072.09;1646394;85;21208;-86
2021/05/03 11:56:32;;;;;;;4.67;2.70;;;;;;;10.69;54.67;100093.15;1668060;84;21204;-87
2021/05/03 11:59:00;;;;;;;3.90;2.33;;;;;;;10.51;53.56;100077.41;1668066;85;21225;-84
2021/05/03 12:01:33;;;;;;;5.45;2.60;;;;;;;10.59;52.87;100065.55;1643186;85;21236;-86
2021/05/03 12:04:00;;;;;;;7.50;3.00;;;;;;;10.83;52.30;100076.72;1661970;84;21202;-86
2021/05/03 12:06:42;;;;;;;7.22;3.70;;;;;;;10.20;57.11;100139.88;1665386;84;21224;-90
2021/05/03 12:09:13;;;;;;;5.90;3.25;;;;;;;9.98;59.76;100105.58;1665936;84;21179;-84
2021/05/03 12:11:58;;;;;;;7.00;3.50;;;;;;;10.09;60.91;100094.77;1637237;85;21251;-86
2021/05/03 12:14:47;;;;;;;7.47;3.65;;;;;;;10.21;60.72;100094.03;1619483;87;21374;-87
2021/05/03 12:17:32;;;;;;;5.80;3.52;;;;;;;10.30;59.51;100077.27;1622348;87;21235;-85